createdAt,value
2022-10-14T00:00:22.538Z,98639.94
2022-10-14T00:01:24.452Z,98638.38
2022-10-14T00:02:25.829Z,98639.16
2022-10-14T00:03:27.173Z,98636.81
2022-10-14T00:04:28.558Z,98634.78
2022-10-14T00:05:29.905Z,98638.09
2022-10-14T00:06:31.970Z,98628.06
2022-10-14T00:07:33.306Z,98625.84
2022-10-14T00:08:34.733Z,98628.53
2022-10-14T00:09:37.213Z,98622.56
2022-10-14T00:10:39.791Z,98621.78
2022-10-14T00:11:41.140Z,98620.53
2022-10-14T00:12:42.464Z,98622.25
2022-10-14T00:13:44.340Z,98623.69
2022-10-14T00:14:45.773Z,98625.56
2022-10-14T00:15:47.113Z,98615.25
2022-10-14T00:16:51.856Z,98617.09
2022-10-14T00:17:53.169Z,98618.97
2022-10-14T00:18:54.768Z,98617.09
2022-10-14T00:19:56.425Z,98622.13
2022-10-14T00:20:58.692Z,98618.38
2022-10-14T00:22:00.042Z,98614.91
2022-10-14T00:23:01.640Z,98618.38
2022-10-14T00:24:03.043Z,98616.47
2022-10-14T00:25:04.535Z,98618.03
2022-10-14T00:26:06.646Z,98618.81
2022-10-14T00:27:09.855Z,98618.81
2022-10-14T00:28:11.177Z,98614.59
2022-10-14T00:29:13.720Z,98619.91
2022-10-14T00:30:15.450Z,98616.47
2022-10-14T00:31:17.391Z,98619.13
2022-10-14T00:32:21.829Z,98623.38
2022-10-14T00:33:26.265Z,98620.69
2022-10-14T00:34:30.600Z,98626.50
2022-10-14T00:35:34.910Z,98629.16
2022-10-14T00:36:36.247Z,98623.38
2022-10-14T00:37:37.639Z,98631.34
2022-10-14T00:38:39.577Z,98631.06
2022-10-14T00:39:40.875Z,98633.72
2022-10-14T00:40:42.222Z,98629.94
2022-10-14T00:41:43.726Z,98629.94
2022-10-14T00:42:45.162Z,98621.97
2022-10-14T00:44:06.528Z,98627.59
2022-10-14T00:45:12.419Z,98621.47
2022-10-14T00:46:13.734Z,98619.59
2022-10-14T00:47:15.110Z,98617.75
2022-10-14T00:48:17.785Z,98622.25
2022-10-14T00:49:28.920Z,98617.75
2022-10-14T00:50:30.276Z,98625.72
2022-10-14T00:51:33.127Z,98624.91
2022-10-14T00:52:34.477Z,98625.72
2022-10-14T00:53:36.005Z,98622.41
2022-10-14T00:54:49.892Z,98624.28
2022-10-14T00:55:51.275Z,98631.19
2022-10-14T00:56:52.744Z,98624.63
2022-10-14T00:57:54.101Z,98620.41
2022-10-14T00:58:56.373Z,98618.81
2022-10-14T01:00:01.869Z,98625.41
2022-10-14T01:01:03.343Z,98620.84
2022-10-14T01:02:05.047Z,98623.66
2022-10-14T01:03:07.589Z,98630.09
2022-10-14T01:04:08.892Z,98630.41
2022-10-14T01:05:11.419Z,98631.19
2022-10-14T01:06:24.978Z,98633.38
2022-10-14T01:07:46.114Z,98630.72
2022-10-14T01:08:58.747Z,98629.28
2022-10-14T01:10:23.170Z,98626.97
2022-10-14T01:11:31.440Z,98622.75
2022-10-14T01:12:36.000Z,98623.19
2022-10-14T01:13:42.561Z,98626.63
2022-10-14T01:14:52.778Z,98622.41
2022-10-14T01:15:57.142Z,98623.19
2022-10-14T01:17:10.493Z,98623.19
2022-10-14T01:18:30.164Z,98616.31
2022-10-14T01:19:39.260Z,98619.75
2022-10-14T01:20:43.431Z,98617.88
2022-10-14T01:21:48.345Z,98620.53
2022-10-14T01:23:03.781Z,98621.63
2022-10-14T01:24:21.992Z,98617.56
2022-10-14T01:25:31.844Z,98620.22
2022-10-14T01:26:51.589Z,98624.78
2022-10-14T01:28:14.821Z,98620.06
2022-10-14T01:29:26.529Z,98626.34
2022-10-14T01:30:51.185Z,98618.63
2022-10-14T01:32:05.776Z,98621.31
2022-10-14T01:33:13.542Z,98612.84
2022-10-14T01:34:18.716Z,98617.09
2022-10-14T01:35:20.078Z,98618.63
2022-10-14T01:36:37.559Z,98619.44
2022-10-14T01:37:45.258Z,98607.97
2022-10-14T01:38:58.876Z,98612.22
2022-10-14T01:40:03.040Z,98608.78
2022-10-14T01:41:06.963Z,98605.03
2022-10-14T01:42:11.002Z,98608.78
2022-10-14T01:43:13.269Z,98608.31
2022-10-14T01:44:16.797Z,98606.44
2022-10-14T01:45:20.441Z,98608.31
2022-10-14T01:46:24.428Z,98609.09
2022-10-14T01:47:28.354Z,98601.88
2022-10-14T01:48:32.575Z,98604.53
2022-10-14T01:49:39.493Z,98607.19
2022-10-14T01:50:44.525Z,98604.88
2022-10-14T01:51:51.235Z,98603.31
2022-10-14T01:52:56.560Z,98602.53
2022-10-14T01:54:02.557Z,98603.31
2022-10-14T01:55:07.174Z,98603.59
2022-10-14T01:56:09.561Z,98592.31
2022-10-14T01:57:15.353Z,98600.66
2022-10-14T01:58:18.137Z,98599.88
2022-10-14T01:59:21.161Z,98591.88
2022-10-14T02:00:22.589Z,98596.53
2022-10-14T02:01:24.358Z,98602.97
2022-10-14T02:02:25.921Z,98607.19
2022-10-14T02:03:37.641Z,98600.31
2022-10-14T02:04:39.618Z,98600.94
2022-10-14T02:05:53.137Z,98604.88
2022-10-14T02:06:57.679Z,98608.31
2022-10-14T02:08:04.929Z,98604.09
2022-10-14T02:09:06.232Z,98607.84
2022-10-14T02:10:44.014Z,98610.97
2022-10-14T02:11:51.191Z,98605.97
2022-10-14T02:13:00.296Z,98602.53
2022-10-14T02:14:26.433Z,98608.94
2022-10-14T02:15:45.397Z,98600.94
2022-10-14T02:16:59.974Z,98604.41
2022-10-14T02:18:10.672Z,98606.75
2022-10-14T02:19:29.292Z,98609.41
2022-10-14T02:20:35.745Z,98611.59
2022-10-14T02:21:41.582Z,98611.75
2022-10-14T02:22:45.169Z,98604.41
2022-10-14T02:23:49.920Z,98606.28
2022-10-14T02:24:52.879Z,98610.81
2022-10-14T02:25:54.844Z,98604.72
2022-10-14T02:26:57.994Z,98608.16
2022-10-14T02:28:01.128Z,98606.28
2022-10-14T02:29:03.133Z,98615.69
2022-10-14T02:30:04.696Z,98606.00
2022-10-14T02:31:10.377Z,98602.84
2022-10-14T02:32:13.985Z,98602.38
2022-10-14T02:33:15.624Z,98604.56
2022-10-14T02:34:20.928Z,98604.88
2022-10-14T02:35:24.106Z,98599.25
2022-10-14T02:36:26.747Z,98604.41
2022-10-14T02:37:29.568Z,98599.72
2022-10-14T02:38:33.930Z,98599.59
2022-10-14T02:39:37.183Z,98599.44
2022-10-14T02:40:44.641Z,98596.31
2022-10-14T02:41:46.125Z,98592.84
2022-10-14T02:42:47.454Z,98594.72
2022-10-14T02:43:48.836Z,98595.50
2022-10-14T02:44:58.013Z,98589.72
2022-10-14T02:46:01.391Z,98589.28
2022-10-14T02:47:03.298Z,98596.00
2022-10-14T02:48:05.702Z,98589.13
2022-10-14T02:49:07.097Z,98589.44
2022-10-14T02:50:08.675Z,98592.88
2022-10-14T02:51:10.049Z,98593.84
2022-10-14T02:52:12.846Z,98583.31
2022-10-14T02:53:16.081Z,98584.13
2022-10-14T02:54:19.974Z,98583.63
2022-10-14T02:55:21.401Z,98583.19
2022-10-14T02:56:22.972Z,98582.41
2022-10-14T02:57:24.384Z,98578.97
2022-10-14T02:58:25.709Z,98570.50
2022-10-14T02:59:27.085Z,98567.06
2022-10-14T03:00:29.364Z,98563.63
2022-10-14T03:01:36.469Z,98566.59
2022-10-14T03:02:39.544Z,98560.19
2022-10-14T03:03:41.785Z,98552.66
2022-10-14T03:04:43.157Z,98561.28
2022-10-14T03:05:45.149Z,98558.28
2022-10-14T03:06:48.288Z,98552.97
2022-10-14T03:07:49.715Z,98557.50
2022-10-14T03:08:53.140Z,98550.63
2022-10-14T03:09:54.494Z,98552.97
2022-10-14T03:10:58.300Z,98550.63
2022-10-14T03:12:00.656Z,98549.19
2022-10-14T03:13:02.772Z,98555.00
2022-10-14T03:14:09.458Z,98554.53
2022-10-14T03:15:11.596Z,98554.06
2022-10-14T03:16:14.033Z,98546.38
2022-10-14T03:17:18.599Z,98537.94
2022-10-14T03:18:20.919Z,98543.59
2022-10-14T03:19:23.804Z,98546.25
2022-10-14T03:20:28.888Z,98546.25
2022-10-14T03:21:31.987Z,98543.59
2022-10-14T03:22:33.363Z,98547.16
2022-10-14T03:23:34.853Z,98537.63
2022-10-14T03:24:36.980Z,98541.84
2022-10-14T03:26:13.844Z,98538.88
2022-10-14T03:27:18.181Z,98537.31
2022-10-14T03:28:23.250Z,98536.84
2022-10-14T03:29:35.472Z,98538.72
2022-10-14T03:30:46.958Z,98530.75
2022-10-14T03:31:53.409Z,98532.63
2022-10-14T03:33:22.782Z,98530.75
2022-10-14T03:34:35.242Z,98535.59
2022-10-14T03:35:40.400Z,98530.59
2022-10-14T03:36:45.984Z,98527.63
2022-10-14T03:37:47.797Z,98527.63
2022-10-14T03:38:51.945Z,98526.53
2022-10-14T03:40:13.753Z,98522.31
2022-10-14T03:41:15.081Z,98519.63
2022-10-14T03:42:16.461Z,98517.75
2022-10-14T03:43:21.504Z,98518.53
2022-10-14T03:44:29.058Z,98516.03
2022-10-14T03:45:45.859Z,98524.00
2022-10-14T03:46:48.760Z,98517.09
2022-10-14T03:47:50.105Z,98522.91
2022-10-14T03:48:52.094Z,98525.88
2022-10-14T03:49:53.745Z,98515.38
2022-10-14T03:51:00.966Z,98514.16
2022-10-14T03:52:03.859Z,98508.03
2022-10-14T03:53:08.153Z,98511.47
2022-10-14T03:54:11.306Z,98510.38
2022-10-14T03:55:13.386Z,98507.38
2022-10-14T03:56:16.966Z,98506.59
2022-10-14T03:57:19.359Z,98498.28
2022-10-14T03:58:26.075Z,98500.19
2022-10-14T03:59:33.259Z,98498.63
2022-10-14T04:00:35.182Z,98506.16
2022-10-14T04:01:52.246Z,98498.94
2022-10-14T04:02:57.790Z,98502.72
2022-10-14T04:04:08.090Z,98493.94
2022-10-14T04:05:10.869Z,98493.47
2022-10-14T04:06:13.502Z,98489.25
2022-10-14T04:07:14.880Z,98493.81
2022-10-14T04:08:23.143Z,98495.69
2022-10-14T04:09:30.397Z,98497.88
2022-10-14T04:10:31.782Z,98486.13
2022-10-14T04:11:33.578Z,98489.88
2022-10-14T04:12:39.704Z,98491.75
2022-10-14T04:13:45.296Z,98496.75
2022-10-14T04:14:46.623Z,98483.78
2022-10-14T04:15:48.030Z,98482.22
2022-10-14T04:17:12.414Z,98486.00
2022-10-14T04:18:13.791Z,98483.00
2022-10-14T04:19:16.817Z,98483.78
2022-10-14T04:20:18.745Z,98479.22
2022-10-14T04:21:20.880Z,98477.69
2022-10-14T04:22:25.117Z,98476.91
2022-10-14T04:23:29.216Z,98476.41
2022-10-14T04:24:36.385Z,98465.00
2022-10-14T04:25:38.532Z,98470.28
2022-10-14T04:26:40.782Z,98471.41
2022-10-14T04:27:48.354Z,98477.84
2022-10-14T04:28:49.768Z,98471.41
2022-10-14T04:30:05.237Z,98473.13
2022-10-14T04:31:16.687Z,98479.56
2022-10-14T04:32:33.071Z,98473.13
2022-10-14T04:33:34.850Z,98473.91
2022-10-14T04:34:44.068Z,98474.56
2022-10-14T04:35:49.051Z,98474.09
2022-10-14T04:36:58.272Z,98479.72
2022-10-14T04:38:16.817Z,98472.19
2022-10-14T04:39:26.371Z,98474.88
2022-10-14T04:40:27.895Z,98466.09
2022-10-14T04:41:31.711Z,98470.31
2022-10-14T04:42:35.351Z,98467.81
2022-10-14T04:43:40.025Z,98466.25
2022-10-14T04:44:56.978Z,98467.47
2022-10-14T04:46:07.896Z,98463.59
2022-10-14T04:47:09.448Z,98464.38
2022-10-14T04:48:11.715Z,98461.38
2022-10-14T04:49:17.077Z,98456.84
2022-10-14T04:50:27.524Z,98459.50
2022-10-14T04:51:47.381Z,98457.16
2022-10-14T04:53:01.138Z,98454.97
2022-10-14T04:54:02.496Z,98454.19
2022-10-14T04:55:19.320Z,98456.84
2022-10-14T04:56:21.017Z,98460.31
2022-10-14T04:57:31.331Z,98456.53
2022-10-14T04:58:32.835Z,98457.31
2022-10-14T04:59:34.234Z,98460.31
2022-10-14T05:00:53.785Z,98456.06
2022-10-14T05:02:03.152Z,98455.75
2022-10-14T05:03:13.497Z,98454.19
2022-10-14T05:04:14.855Z,98454.66
2022-10-14T05:05:18.045Z,98447.78
2022-10-14T05:06:24.386Z,98442.91
2022-10-14T05:07:27.224Z,98442.56
2022-10-14T05:08:36.510Z,98437.56
2022-10-14T05:09:39.957Z,98440.25
2022-10-14T05:10:52.922Z,98439.13
2022-10-14T05:12:08.370Z,98433.03
2022-10-14T05:13:18.076Z,98435.69
2022-10-14T05:14:29.593Z,98438.69
2022-10-14T05:15:42.169Z,98425.03
2022-10-14T05:16:46.619Z,98425.03
2022-10-14T05:17:48.141Z,98431.47
2022-10-14T05:18:53.247Z,98428.81
2022-10-14T05:19:54.646Z,98426.47
2022-10-14T05:20:58.345Z,98426.47
2022-10-14T05:22:02.621Z,98420.69
2022-10-14T05:23:11.318Z,98425.22
2022-10-14T05:24:12.776Z,98421.47
2022-10-14T05:25:15.298Z,98418.34
2022-10-14T05:26:17.257Z,98420.69
2022-10-14T05:27:19.116Z,98425.03
2022-10-14T05:28:20.914Z,98415.50
2022-10-14T05:29:24.105Z,98420.38
2022-10-14T05:30:28.659Z,98423.03
2022-10-14T05:31:33.635Z,98416.91
2022-10-14T05:32:42.088Z,98419.91
2022-10-14T05:33:43.525Z,98426.78
2022-10-14T05:34:45.294Z,98418.50
2022-10-14T05:36:07.167Z,98417.72
2022-10-14T05:37:09.190Z,98419.56
2022-10-14T05:38:17.624Z,98420.84
2022-10-14T05:39:22.538Z,98415.50
2022-10-14T05:40:23.947Z,98414.72
2022-10-14T05:41:27.029Z,98411.28
2022-10-14T05:42:28.370Z,98409.56
2022-10-14T05:43:33.093Z,98408.75
2022-10-14T05:44:36.613Z,98405.00
2022-10-14T05:45:39.031Z,98405.00
2022-10-14T05:46:40.846Z,98406.91
2022-10-14T05:47:46.015Z,98402.78
2022-10-14T05:48:52.418Z,98413.59
2022-10-14T05:50:00.647Z,98411.25
2022-10-14T05:51:07.285Z,98408.91
2022-10-14T05:52:13.657Z,98409.69
2022-10-14T05:53:15.248Z,98411.72
2022-10-14T05:54:20.986Z,98411.38
2022-10-14T05:55:27.493Z,98414.81
2022-10-14T05:56:38.065Z,98417.97
2022-10-14T05:57:39.601Z,98422.19
2022-10-14T05:58:40.992Z,98414.53
2022-10-14T05:59:43.007Z,98416.41
2022-10-14T06:00:44.490Z,98416.06
2022-10-14T06:01:50.194Z,98416.84
2022-10-14T06:02:52.790Z,98413.09
2022-10-14T06:03:54.322Z,98406.53
2022-10-14T06:04:56.337Z,98407.31
2022-10-14T06:05:58.009Z,98408.53
2022-10-14T06:06:59.368Z,98404.75
2022-10-14T06:08:00.698Z,98401.31
2022-10-14T06:09:02.037Z,98410.09
2022-10-14T06:10:03.527Z,98410.25
2022-10-14T06:11:04.928Z,98404.91
2022-10-14T06:12:08.353Z,98409.13
2022-10-14T06:13:10.561Z,98406.47
2022-10-14T06:14:13.574Z,98406.94
2022-10-14T06:15:15.374Z,98406.16
2022-10-14T06:16:16.700Z,98413.03
2022-10-14T06:17:24.313Z,98410.38
2022-10-14T06:18:25.727Z,98413.03
2022-10-14T06:19:28.341Z,98412.28
2022-10-14T06:20:29.693Z,98410.84
2022-10-14T06:21:31.017Z,98411.59
2022-10-14T06:22:32.306Z,98418.53
2022-10-14T06:23:33.654Z,98417.84
2022-10-14T06:24:34.987Z,98418.97
2022-10-14T06:25:36.486Z,98421.97
2022-10-14T06:26:37.811Z,98419.75
2022-10-14T06:27:39.135Z,98416.78
2022-10-14T06:28:40.569Z,98425.53
2022-10-14T06:29:41.970Z,98417.56
2022-10-14T06:30:43.466Z,98421.78
2022-10-14T06:31:44.759Z,98417.56
2022-10-14T06:32:46.285Z,98420.22
2022-10-14T06:33:47.585Z,98419.09
2022-10-14T06:34:48.953Z,98421.28
2022-10-14T06:35:50.335Z,98421.00
2022-10-14T06:36:51.650Z,98417.66
2022-10-14T06:37:52.965Z,98414.22
2022-10-14T06:38:54.317Z,98415.47
2022-10-14T06:39:55.654Z,98420.81
2022-10-14T06:40:57.032Z,98412.03
2022-10-14T06:41:58.354Z,98415.63
2022-10-14T06:42:59.665Z,98420.16
2022-10-14T06:44:01.052Z,98415.63
2022-10-14T06:45:02.403Z,98414.56
2022-10-14T06:46:04.219Z,98415.91
2022-10-14T06:47:06.578Z,98417.31
2022-10-14T06:48:07.882Z,98416.69
2022-10-14T06:49:09.226Z,98420.91
2022-10-14T06:50:10.698Z,98419.03
2022-10-14T06:51:12.085Z,98417.47
2022-10-14T06:52:13.445Z,98416.84
2022-10-14T06:53:14.880Z,98418.06
2022-10-14T06:54:16.996Z,98413.97
2022-10-14T06:55:18.321Z,98417.75
2022-10-14T06:56:19.618Z,98413.97
2022-10-14T06:57:20.955Z,98412.53
2022-10-14T06:58:22.324Z,98409.88
2022-10-14T06:59:23.689Z,98414.91
2022-10-14T07:00:25.113Z,98411.13
2022-10-14T07:01:26.588Z,98411.25
2022-10-14T07:02:28.080Z,98409.03
2022-10-14T07:03:29.396Z,98412.63
2022-10-14T07:04:30.718Z,98409.97
2022-10-14T07:05:32.061Z,98406.53
2022-10-14T07:06:33.444Z,98408.22
2022-10-14T07:07:34.749Z,98412.44
2022-10-14T07:08:36.105Z,98408.31
2022-10-14T07:09:37.567Z,98409.13
2022-10-14T07:10:38.945Z,98411.59
2022-10-14T07:11:40.274Z,98411.72
2022-10-14T07:12:42.628Z,98412.47
2022-10-14T07:13:44.319Z,98412.03
2022-10-14T07:14:45.622Z,98405.94
2022-10-14T07:15:49.793Z,98405.59
2022-10-14T07:16:51.207Z,98412.03
2022-10-14T07:17:52.537Z,98408.25
2022-10-14T07:18:53.936Z,98409.81
2022-10-14T07:19:55.245Z,98407.97
2022-10-14T07:20:56.600Z,98404.19
2022-10-14T07:21:57.965Z,98407.63
2022-10-14T07:22:59.330Z,98404.97
2022-10-14T07:24:00.627Z,98412.94
2022-10-14T07:25:02.412Z,98409.81
2022-10-14T07:26:03.808Z,98406.38
2022-10-14T07:27:05.204Z,98411.72
2022-10-14T07:28:06.819Z,98408.72
2022-10-14T07:29:08.119Z,98409.50
2022-10-14T07:30:12.581Z,98410.63
2022-10-14T07:31:16.590Z,98408.72
2022-10-14T07:32:17.908Z,98421.38
2022-10-14T07:33:19.248Z,98419.19
2022-10-14T07:34:20.643Z,98419.31
2022-10-14T07:35:21.972Z,98420.13
2022-10-14T07:36:23.634Z,98425.25
2022-10-14T07:37:25.252Z,98418.78
2022-10-14T07:38:26.733Z,98424.28
2022-10-14T07:39:28.394Z,98425.81
2022-10-14T07:40:29.777Z,98427.03
2022-10-14T07:41:32.009Z,98424.38
2022-10-14T07:42:34.102Z,98428.09
2022-10-14T07:43:35.481Z,98427.41
2022-10-14T07:44:36.845Z,98423.66
2022-10-14T07:45:41.314Z,98435.53
2022-10-14T07:46:43.445Z,98436.31
2022-10-14T07:47:47.541Z,98436.31
2022-10-14T07:48:57.509Z,98434.13
2022-10-14T07:50:02.497Z,98434.56
2022-10-14T07:51:03.880Z,98439.56
2022-10-14T07:52:05.295Z,98428.91
2022-10-14T07:53:06.667Z,98428.91
2022-10-14T07:54:09.837Z,98431.56
2022-10-14T07:55:11.436Z,98432.03
2022-10-14T07:56:12.801Z,98431.56
2022-10-14T07:57:14.315Z,98430.78
2022-10-14T07:58:15.654Z,98434.69
2022-10-14T07:59:18.084Z,98426.03
2022-10-14T08:00:19.394Z,98428.69
2022-10-14T08:01:20.773Z,98431.19
2022-10-14T08:02:22.218Z,98430.97
2022-10-14T08:03:24.269Z,98430.41
2022-10-14T08:04:25.634Z,98424.09
2022-10-14T08:05:42.801Z,98421.09
2022-10-14T08:06:44.207Z,98428.09
2022-10-14T08:07:45.603Z,98415.53
2022-10-14T08:08:47.211Z,98419.44
2022-10-14T08:09:48.595Z,98422.56
2022-10-14T08:10:49.910Z,98415.13
2022-10-14T08:11:51.261Z,98417.47
2022-10-14T08:12:52.715Z,98416.69
2022-10-14T08:13:54.749Z,98415.56
2022-10-14T08:14:56.693Z,98415.88
2022-10-14T08:15:58.086Z,98409.78
2022-10-14T08:16:59.432Z,98412.00
2022-10-14T08:18:01.082Z,98407.00
2022-10-14T08:19:05.561Z,98403.22
2022-10-14T08:20:09.083Z,98407.09
2022-10-14T08:21:10.466Z,98406.03
2022-10-14T08:22:11.781Z,98415.22
2022-10-14T08:23:16.155Z,98410.47
2022-10-14T08:24:20.369Z,98408.72
2022-10-14T08:25:21.770Z,98414.84
2022-10-14T08:26:32.144Z,98412.50
2022-10-14T08:27:33.480Z,98404.03
2022-10-14T08:28:34.859Z,98409.06
2022-10-14T08:29:36.225Z,98409.97
2022-10-14T08:30:37.528Z,98406.47
2022-10-14T08:31:38.886Z,98407.47
2022-10-14T08:32:40.412Z,98407.28
2022-10-14T08:33:41.790Z,98403.03
2022-10-14T08:34:43.112Z,98398.94
2022-10-14T08:35:44.460Z,98397.38
2022-10-14T08:36:45.793Z,98396.25
2022-10-14T08:37:56.713Z,98405.06
2022-10-14T08:38:58.099Z,98402.72
2022-10-14T08:39:59.474Z,98400.81
2022-10-14T08:41:06.627Z,98406.16
2022-10-14T08:42:10.786Z,98398.47
2022-10-14T08:43:18.287Z,98399.28
2022-10-14T08:44:19.612Z,98398.47
2022-10-14T08:45:32.474Z,98393.94
2022-10-14T08:46:38.435Z,98395.59
2022-10-14T08:47:42.104Z,98386.25
2022-10-14T08:48:44.105Z,98396.59
2022-10-14T08:50:00.618Z,98400.06
2022-10-14T08:51:09.805Z,98397.81
2022-10-14T08:52:15.352Z,98398.16
2022-10-14T08:53:19.374Z,98404.28
2022-10-14T08:54:31.073Z,98393.25
2022-10-14T08:55:35.393Z,98394.50
2022-10-14T08:56:37.242Z,98400.91
2022-10-14T08:57:41.298Z,98395.91
2022-10-14T08:58:53.143Z,98390.25
2022-10-14T08:59:54.466Z,98399.06
2022-10-14T09:00:56.142Z,98401.81
2022-10-14T09:02:01.990Z,98388.81
2022-10-14T09:03:10.178Z,98394.16
2022-10-14T09:04:13.522Z,98396.47
2022-10-14T09:05:15.944Z,98393.94
2022-10-14T09:06:24.522Z,98393.28
2022-10-14T09:07:26.153Z,98386.16
2022-10-14T09:08:31.029Z,98386.25
2022-10-14T09:09:43.277Z,98382.13
2022-10-14T09:10:44.937Z,98391.03
2022-10-14T09:11:48.621Z,98386.25
2022-10-14T09:12:50.954Z,98388.22
2022-10-14T09:13:57.318Z,98378.44
2022-10-14T09:15:12.412Z,98389.59
2022-10-14T09:16:17.281Z,98389.34
2022-10-14T09:17:27.410Z,98387.56
2022-10-14T09:18:36.644Z,98384.56
2022-10-14T09:19:56.770Z,98388.53
2022-10-14T09:20:58.767Z,98387.09
2022-10-14T09:22:00.935Z,98388.84
2022-10-14T09:23:02.240Z,98386.41
2022-10-14T09:24:12.373Z,98383.91
2022-10-14T09:25:16.623Z,98379.78
2022-10-14T09:26:19.343Z,98379.09
2022-10-14T09:27:22.380Z,98382.56
2022-10-14T09:28:39.705Z,98381.09
2022-10-14T09:29:48.651Z,98381.53
2022-10-14T09:30:50.020Z,98379.31
2022-10-14T09:31:51.709Z,98374.41
2022-10-14T09:32:54.207Z,98385.19
2022-10-14T09:33:56.070Z,98382.94
2022-10-14T09:34:58.020Z,98376.16
2022-10-14T09:36:00.348Z,98377.34
2022-10-14T09:37:20.855Z,98379.34
2022-10-14T09:38:22.567Z,98380.28
2022-10-14T09:39:23.987Z,98379.25
2022-10-14T09:40:28.206Z,98378.13
2022-10-14T09:41:30.715Z,98371.22
2022-10-14T09:42:42.703Z,98378.13
2022-10-14T09:44:02.841Z,98374.31
2022-10-14T09:45:23.149Z,98378.13
2022-10-14T09:46:24.827Z,98375.03
2022-10-14T09:47:26.408Z,98380.44
2022-10-14T09:48:27.858Z,98369.41
2022-10-14T09:49:33.737Z,98376.06
2022-10-14T09:50:41.329Z,98373.50
2022-10-14T09:51:43.289Z,98366.66
2022-10-14T09:52:57.237Z,98373.25
2022-10-14T09:53:59.921Z,98371.66
2022-10-14T09:55:01.585Z,98373.00
2022-10-14T09:56:04.724Z,98368.06
2022-10-14T09:57:07.445Z,98374.44
2022-10-14T09:58:14.382Z,98365.75
2022-10-14T09:59:17.386Z,98373.88
2022-10-14T10:00:26.155Z,98367.13
2022-10-14T10:01:29.097Z,98365.75
2022-10-14T10:02:39.371Z,98366.53
2022-10-14T10:03:40.851Z,98364.81
2022-10-14T10:04:44.189Z,98363.78
2022-10-14T10:05:45.619Z,98364.31
2022-10-14T10:06:51.307Z,98360.59
2022-10-14T10:08:03.743Z,98354.53
2022-10-14T10:09:05.106Z,98358.69
2022-10-14T10:10:24.563Z,98358.31
2022-10-14T10:11:30.386Z,98352.19
2022-10-14T10:12:33.152Z,98350.81
2022-10-14T10:13:36.115Z,98355.06
2022-10-14T10:14:37.495Z,98354.69
2022-10-14T10:15:38.794Z,98354.25
2022-10-14T10:16:40.206Z,98350.22
2022-10-14T10:17:41.657Z,98347.69
2022-10-14T10:18:43.017Z,98343.19
2022-10-14T10:19:48.073Z,98345.50
2022-10-14T10:21:00.324Z,98341.72
2022-10-14T10:22:34.263Z,98336.09
2022-10-14T10:23:36.329Z,98330.97
2022-10-14T10:24:37.641Z,98329.19
2022-10-14T10:25:38.938Z,98328.81
2022-10-14T10:26:40.249Z,98322.78
2022-10-14T10:27:42.855Z,98325.00
2022-10-14T10:28:45.629Z,98320.09
2022-10-14T10:29:47.110Z,98320.41
2022-10-14T10:30:57.562Z,98323.53
2022-10-14T10:32:01.753Z,98315.91
2022-10-14T10:33:03.074Z,98322.06
2022-10-14T10:34:09.955Z,98319.72
2022-10-14T10:35:17.523Z,98319.28
2022-10-14T10:36:30.075Z,98312.75
2022-10-14T10:37:32.702Z,98320.00
2022-10-14T10:38:39.010Z,98311.88
2022-10-14T10:39:40.295Z,98314.91
2022-10-14T10:41:16.982Z,98308.06
2022-10-14T10:42:26.131Z,98310.84
2022-10-14T10:43:38.946Z,98310.84
2022-10-14T10:44:43.280Z,98304.44
2022-10-14T10:45:44.715Z,98300.97
2022-10-14T10:46:46.156Z,98293.34
2022-10-14T10:47:53.363Z,98297.31
2022-10-14T10:49:17.420Z,98301.69
2022-10-14T10:50:28.122Z,98291.03
2022-10-14T10:51:29.598Z,98291.31
2022-10-14T10:52:42.082Z,98291.81
2022-10-14T10:53:48.385Z,98292.38
2022-10-14T10:54:58.729Z,98294.41
2022-10-14T10:56:15.906Z,98291.78
2022-10-14T10:57:20.268Z,98288.34
2022-10-14T10:58:39.696Z,98286.50
2022-10-14T10:59:48.940Z,98285.00
2022-10-14T11:00:54.664Z,98283.38
2022-10-14T11:02:14.788Z,98285.22
2022-10-14T11:03:36.061Z,98278.00
2022-10-14T11:04:37.425Z,98281.13
2022-10-14T11:05:51.482Z,98281.53
2022-10-14T11:07:13.124Z,98279.63
2022-10-14T11:08:24.709Z,98284.59
2022-10-14T11:09:32.020Z,98276.09
2022-10-14T11:10:42.542Z,98271.47
2022-10-14T11:11:50.801Z,98276.81
2022-10-14T11:13:00.813Z,98276.47
2022-10-14T11:14:21.038Z,98267.28
2022-10-14T11:15:40.674Z,98273.97
2022-10-14T11:17:00.809Z,98272.41
2022-10-14T11:18:20.953Z,98265.38
2022-10-14T11:19:34.626Z,98264.13
2022-10-14T11:20:54.688Z,98269.47
2022-10-14T11:22:24.230Z,98260.66
2022-10-14T11:23:37.439Z,98261.06
2022-10-14T11:24:56.416Z,98260.28
2022-10-14T11:25:57.770Z,98262.94
2022-10-14T11:27:05.147Z,98263.72
2022-10-14T11:28:21.633Z,98257.50
2022-10-14T11:29:36.982Z,98263.94
2022-10-14T11:30:53.406Z,98262.38
2022-10-14T11:31:57.401Z,98267.97
2022-10-14T11:32:59.069Z,98267.47
2022-10-14T11:34:00.529Z,98273.44
2022-10-14T11:35:14.363Z,98273.63
2022-10-14T11:36:15.669Z,98274.53
2022-10-14T11:37:32.944Z,98274.69
2022-10-14T11:38:39.991Z,98271.81
2022-10-14T11:39:46.533Z,98277.06
2022-10-14T11:41:01.202Z,98265.16
2022-10-14T11:42:18.003Z,98263.50
2022-10-14T11:43:26.358Z,98260.16
2022-10-14T11:44:31.930Z,98258.59
2022-10-14T11:45:42.283Z,98263.25
2022-10-14T11:46:45.609Z,98262.56
2022-10-14T11:47:50.547Z,98256.69
2022-10-14T11:49:01.283Z,98261.69
2022-10-14T11:50:21.622Z,98257.19
2022-10-14T11:51:36.029Z,98249.84
2022-10-14T11:52:45.633Z,98252.88
2022-10-14T11:53:52.305Z,98251.34
2022-10-14T11:54:55.956Z,98249.56
2022-10-14T11:56:04.944Z,98244.94
2022-10-14T11:57:26.541Z,98244.22
2022-10-14T11:58:29.456Z,98240.47
2022-10-14T11:59:33.816Z,98242.06
2022-10-14T12:00:38.660Z,98234.44
2022-10-14T12:01:40.903Z,98237.03
2022-10-14T12:02:52.994Z,98227.38
2022-10-14T12:03:57.589Z,98229.63
2022-10-14T12:05:14.473Z,98224.28
2022-10-14T12:06:25.383Z,98227.03
2022-10-14T12:07:31.200Z,98217.50
2022-10-14T12:08:39.852Z,98215.75
2022-10-14T12:09:48.590Z,98212.03
2022-10-14T12:10:53.194Z,98215.28
2022-10-14T12:12:05.975Z,98213.59
2022-10-14T12:13:18.434Z,98212.94
2022-10-14T12:14:28.825Z,98215.69
2022-10-14T12:16:39.196Z,98217.84
2022-10-14T12:17:46.407Z,98209.44
2022-10-14T12:18:50.111Z,98211.06
2022-10-14T12:19:53.542Z,98209.53
2022-10-14T12:20:57.783Z,98203.78
2022-10-14T12:21:59.345Z,98196.19
2022-10-14T12:23:03.519Z,98208.78
2022-10-14T12:24:07.246Z,98213.75
2022-10-14T12:25:13.395Z,98210.69
2022-10-14T12:26:20.739Z,98213.44
2022-10-14T12:27:24.225Z,98216.84
2022-10-14T12:28:26.054Z,98205.47
2022-10-14T12:29:40.299Z,98205.88
2022-10-14T12:30:42.449Z,98200.94
2022-10-14T12:31:48.661Z,98199.09
2022-10-14T12:33:05.662Z,98193.38
2022-10-14T12:34:12.985Z,98194.50
2022-10-14T12:35:37.630Z,98192.22
2022-10-14T12:36:39.795Z,98185.38
2022-10-14T12:37:48.752Z,98183.19
2022-10-14T12:39:10.129Z,98189.78
2022-10-14T12:40:14.557Z,98182.97
2022-10-14T12:41:39.653Z,98178.44
2022-10-14T12:42:44.058Z,98186.19
2022-10-14T12:43:58.681Z,98188.94
2022-10-14T12:45:01.170Z,98188.28
2022-10-14T12:46:13.326Z,98179.16
2022-10-14T12:47:27.030Z,98178.47
2022-10-14T12:48:32.715Z,98179.75
2022-10-14T12:49:35.112Z,98179.03
2022-10-14T12:50:37.805Z,98176.41
2022-10-14T12:51:51.971Z,98169.53